createdAt,value
2019-02-16T00:02:33.240Z,55.00
2019-02-16T00:07:09.080Z,55.10
2019-02-16T00:11:44.858Z,55.30
2019-02-16T00:16:20.625Z,55.30
2019-02-16T00:21:03.717Z,55.10
2019-02-16T00:25:33.910Z,53.90
2019-02-16T00:30:09.765Z,54.40
2019-02-16T00:34:45.561Z,54.70
2019-02-16T00:39:21.325Z,54.40
2019-02-16T00:43:57.300Z,54.60
2019-02-16T00:48:33.100Z,54.80
2019-02-16T00:53:08.924Z,54.70
2019-02-16T00:57:44.704Z,55.50
2019-02-16T01:02:20.524Z,55.50
2019-02-16T01:06:56.942Z,55.10
2019-02-16T01:11:32.801Z,55.10
2019-02-16T01:16:08.552Z,55.70
2019-02-16T01:20:44.334Z,55.30
2019-02-16T01:25:20.098Z,55.20
2019-02-16T01:29:55.901Z,55.30
2019-02-16T01:34:31.677Z,55.50
2019-02-16T01:39:07.464Z,55.50
2019-02-16T01:43:43.221Z,54.80
2019-02-16T01:48:19.017Z,54.60
2019-02-16T01:52:54.777Z,54.80
2019-02-16T01:57:30.557Z,54.90
2019-02-16T02:02:06.322Z,55.00
2019-02-16T02:06:42.099Z,55.10
2019-02-16T02:11:17.858Z,55.40
2019-02-16T02:15:53.633Z,55.80
2019-02-16T02:20:30.421Z,56.60
2019-02-16T02:25:07.966Z,56.80
2019-02-16T02:29:43.737Z,56.60
2019-02-16T02:34:19.568Z,56.80
2019-02-16T02:38:55.331Z,56.50
2019-02-16T02:43:32.884Z,56.60
2019-02-16T02:48:08.652Z,56.50
2019-02-16T02:52:44.437Z,57.40
2019-02-16T02:57:20.222Z,56.00
2019-02-16T03:01:56.046Z,56.10
2019-02-16T03:06:31.808Z,55.60
2019-02-16T03:11:07.584Z,55.40
2019-02-16T03:15:43.354Z,54.80
2019-02-16T03:20:19.125Z,55.10
2019-02-16T03:24:54.887Z,55.80
2019-02-16T03:29:56.738Z,56.80
2019-02-16T03:34:38.400Z,56.10
2019-02-16T03:39:44.894Z,56.50
2019-02-16T03:44:20.658Z,55.40
2019-02-16T03:48:56.431Z,56.00
2019-02-16T03:53:32.192Z,56.00
2019-02-16T03:58:07.963Z,55.20
2019-02-16T04:02:43.721Z,55.50
2019-02-16T04:07:19.505Z,55.80
2019-02-16T04:11:55.255Z,55.80
2019-02-16T04:16:31.041Z,54.70
2019-02-16T04:21:06.802Z,54.90
2019-02-16T04:25:42.602Z,55.30
2019-02-16T04:34:51.997Z,54.60
2019-02-16T04:39:27.747Z,55.00
2019-02-16T04:44:03.824Z,54.70
2019-02-16T04:48:39.615Z,54.80
2019-02-16T04:53:15.460Z,55.10
2019-02-16T04:57:51.220Z,55.30
2019-02-16T05:02:27.077Z,55.30
2019-02-16T05:07:02.853Z,54.10
2019-02-16T05:11:38.641Z,55.40
2019-02-16T05:16:14.497Z,55.00
2019-02-16T05:20:50.321Z,53.80
2019-02-16T05:25:26.078Z,53.90
2019-02-16T05:30:01.860Z,54.30
2019-02-16T05:34:37.606Z,54.80
2019-02-16T05:39:13.523Z,54.70
2019-02-16T05:43:49.287Z,55.30
2019-02-16T05:48:25.081Z,54.60
2019-02-16T05:53:00.840Z,53.90
2019-02-16T05:57:36.620Z,53.90
2019-02-16T06:02:12.380Z,52.80
2019-02-16T06:06:48.204Z,53.20
2019-02-16T06:11:23.998Z,53.70
2019-02-16T06:15:59.767Z,54.40
2019-02-16T06:20:35.520Z,54.80
2019-02-16T06:25:11.301Z,55.30
2019-02-16T06:29:47.296Z,55.60
2019-02-16T06:34:23.248Z,56.30
2019-02-16T06:38:59.016Z,56.70
2019-02-16T06:43:34.837Z,56.20
2019-02-16T06:48:10.598Z,56.00
2019-02-16T06:52:46.377Z,55.30
2019-02-16T07:02:00.160Z,53.30
2019-02-16T07:06:35.961Z,52.60
2019-02-16T07:11:11.816Z,52.30
2019-02-16T07:16:06.576Z,52.20
2019-02-16T07:20:42.351Z,52.50
2019-02-16T07:25:18.106Z,52.30
2019-02-16T07:29:53.885Z,52.00
2019-02-16T07:34:29.644Z,52.20
2019-02-16T07:39:07.750Z,52.30
2019-02-16T07:44:05.501Z,52.00
2019-02-16T07:48:51.381Z,51.50
2019-02-16T07:53:52.313Z,51.60
2019-02-16T07:58:42.813Z,51.40
2019-02-16T08:03:25.144Z,50.60
2019-02-16T08:08:16.062Z,50.80
2019-02-16T08:13:13.793Z,50.20
2019-02-16T08:18:00.957Z,50.10
2019-02-16T08:22:55.680Z,49.00
2019-02-16T08:27:50.396Z,48.90
2019-02-16T08:32:47.903Z,49.20
2019-02-16T08:37:45.733Z,49.30
2019-02-16T08:42:49.464Z,49.50
2019-02-16T08:47:44.206Z,49.10
2019-02-16T08:52:38.958Z,49.50
2019-02-16T08:57:39.521Z,48.80
2019-02-16T09:02:24.012Z,49.20
2019-02-16T09:07:21.510Z,50.20
2019-02-16T09:12:22.037Z,49.20
2019-02-16T09:17:21.413Z,48.00
2019-02-16T09:22:14.787Z,47.90
2019-02-16T09:27:21.608Z,47.70
2019-02-16T09:32:13.096Z,46.20
2019-02-16T09:37:13.205Z,45.80
2019-02-16T09:42:03.309Z,45.80
2019-02-16T09:47:01.048Z,45.50
2019-02-16T09:51:54.358Z,45.30
2019-02-16T09:56:43.853Z,43.50
2019-02-16T10:01:38.621Z,43.30
2019-02-16T10:06:25.884Z,43.50
2019-02-16T10:11:15.880Z,43.00
2019-02-16T10:16:19.189Z,43.40
2019-02-16T10:21:29.276Z,42.80
2019-02-16T10:26:17.848Z,42.60
2019-02-16T10:31:02.901Z,42.70
2019-02-16T10:40:30.397Z,42.60
2019-02-16T10:45:24.734Z,42.90
2019-02-16T10:50:19.454Z,40.70
2019-02-16T10:55:17.365Z,40.80
2019-02-16T11:00:10.859Z,40.50
2019-02-16T11:05:11.123Z,41.00
2019-02-16T11:10:03.790Z,41.00
2019-02-16T11:14:57.057Z,41.10
2019-02-16T11:20:09.948Z,41.00
2019-02-16T11:25:01.409Z,41.20
2019-02-16T11:30:14.265Z,40.60
2019-02-16T11:35:05.981Z,40.20
2019-02-16T11:40:03.566Z,40.60
2019-02-16T11:44:48.635Z,40.20
2019-02-16T11:49:33.940Z,40.20
2019-02-16T11:54:45.423Z,40.00
2019-02-16T11:59:22.966Z,39.70
2019-02-16T12:04:10.692Z,39.40
2019-02-16T12:09:16.375Z,39.30
2019-02-16T12:14:11.086Z,39.10
2019-02-16T12:19:04.514Z,38.10
2019-02-16T12:24:11.498Z,37.30
2019-02-16T12:29:00.329Z,37.20
2019-02-16T12:33:58.205Z,37.60
2019-02-16T12:38:39.785Z,37.50
2019-02-16T12:43:42.511Z,36.10
2019-02-16T12:48:29.739Z,36.10
2019-02-16T12:53:23.151Z,36.40
2019-02-16T12:58:08.193Z,36.70
2019-02-16T13:03:03.339Z,37.20
2019-02-16T13:07:47.569Z,36.10
2019-02-16T13:12:45.362Z,36.40
2019-02-16T13:17:30.856Z,35.90
2019-02-16T13:22:15.741Z,36.30
2019-02-16T13:27:21.297Z,35.60
2019-02-16T13:32:03.911Z,36.70
2019-02-16T13:36:49.416Z,35.70
2019-02-16T13:41:56.427Z,35.10
2019-02-16T13:46:58.768Z,35.90
2019-02-16T13:51:49.678Z,35.20
2019-02-16T13:56:38.280Z,36.30
2019-02-16T14:01:21.206Z,35.80
2019-02-16T14:06:24.866Z,35.10
2019-02-16T14:11:18.566Z,35.50
2019-02-16T14:16:28.621Z,34.30
2019-02-16T14:21:04.404Z,34.60
2019-02-16T14:25:48.341Z,34.50
2019-02-16T14:30:24.102Z,33.40
2019-02-16T14:34:59.876Z,34.10
2019-02-16T14:39:35.657Z,33.20
2019-02-16T14:44:11.442Z,34.00
2019-02-16T14:48:47.252Z,33.60
2019-02-16T14:53:23.064Z,33.00
2019-02-16T14:57:58.833Z,33.30
2019-02-16T15:02:36.100Z,34.10
2019-02-16T15:07:11.902Z,33.80
2019-02-16T15:11:47.713Z,32.90
2019-02-16T15:16:23.482Z,33.00
2019-02-16T15:21:00.746Z,33.10
2019-02-16T15:25:36.518Z,33.60
2019-02-16T15:30:14.698Z,33.70
2019-02-16T15:34:50.529Z,36.40
2019-02-16T15:39:26.320Z,35.80
2019-02-16T15:44:02.089Z,36.20
2019-02-16T15:48:37.874Z,40.90
2019-02-16T15:53:13.656Z,43.20
2019-02-16T15:57:49.449Z,44.80
2019-02-16T16:02:25.217Z,45.50
2019-02-16T16:07:02.270Z,45.60
2019-02-16T16:11:46.380Z,46.30
2019-02-16T16:16:39.955Z,47.20
2019-02-16T16:21:50.041Z,47.90
2019-02-16T16:27:03.259Z,49.20
2019-02-16T16:31:57.338Z,50.10
2019-02-16T16:36:49.631Z,50.50
2019-02-16T16:41:44.356Z,51.20
2019-02-16T16:46:54.393Z,52.20
2019-02-16T16:51:54.912Z,53.30
2019-02-16T16:56:58.597Z,53.50
2019-02-16T17:01:48.317Z,53.80
2019-02-16T17:06:31.384Z,53.00
2019-02-16T17:16:24.273Z,52.30
2019-02-16T17:21:18.983Z,52.10
2019-02-16T17:26:13.281Z,51.60
2019-02-16T17:31:03.264Z,50.70
2019-02-16T17:35:50.825Z,50.20
2019-02-16T17:40:45.528Z,50.10
2019-02-16T17:45:40.264Z,49.40
2019-02-16T17:50:40.962Z,49.30
2019-02-16T17:55:29.861Z,49.40
2019-02-16T18:00:29.783Z,48.90
2019-02-16T18:05:30.736Z,49.20
2019-02-16T18:10:24.646Z,48.50
2019-02-16T18:15:18.354Z,48.70
2019-02-16T18:20:00.246Z,49.40
2019-02-16T18:24:58.018Z,49.80
2019-02-16T18:30:07.935Z,49.90
2019-02-16T18:35:08.814Z,50.00
2019-02-16T18:40:03.083Z,50.10
2019-02-16T18:44:57.129Z,50.60
2019-02-16T18:49:45.955Z,49.90
2019-02-16T18:54:31.473Z,50.20
2019-02-16T18:59:26.206Z,49.90
2019-02-16T19:04:26.989Z,49.40
2019-02-16T19:09:21.569Z,49.70
2019-02-16T19:14:07.646Z,49.40
2019-02-16T19:19:11.641Z,49.10
2019-02-16T19:24:12.657Z,49.60
2019-02-16T19:29:06.248Z,48.70
2019-02-16T19:33:59.692Z,48.30
2019-02-16T19:38:50.397Z,47.60
2019-02-16T19:43:45.100Z,48.70
2019-02-16T19:48:38.406Z,47.80
2019-02-16T19:53:33.161Z,46.20
2019-02-16T19:58:26.641Z,46.00
2019-02-16T20:03:20.209Z,45.80
2019-02-16T20:08:30.236Z,46.50
2019-02-16T20:13:41.147Z,45.10
2019-02-16T20:18:38.803Z,46.10
2019-02-16T20:23:41.653Z,46.50
2019-02-16T20:28:34.570Z,47.10
2019-02-16T20:33:38.512Z,46.60
2019-02-16T20:38:32.271Z,47.20
2019-02-16T20:43:29.852Z,46.10
2019-02-16T20:48:30.701Z,46.30
2019-02-16T20:53:23.096Z,46.40
2019-02-16T20:58:21.162Z,47.60
2019-02-16T21:03:14.545Z,46.60
2019-02-16T21:08:14.137Z,46.40
2019-02-16T21:13:11.688Z,46.40
2019-02-16T21:17:59.893Z,46.30
2019-02-16T21:23:09.693Z,47.40
2019-02-16T21:27:58.418Z,48.20
2019-02-16T21:32:51.810Z,48.30
2019-02-16T21:37:49.601Z,46.80
2019-02-16T21:42:43.157Z,46.90
2019-02-16T21:47:36.946Z,45.40
2019-02-16T21:52:43.974Z,47.20
2019-02-16T21:57:56.858Z,47.20
2019-02-16T22:02:58.396Z,46.20
2019-02-16T22:07:53.421Z,46.70
2019-02-16T22:12:38.129Z,48.30
2019-02-16T22:17:13.909Z,48.90
2019-02-16T22:21:49.681Z,48.80
2019-02-16T22:26:25.536Z,48.30
2019-02-16T22:35:36.080Z,46.80
2019-02-16T22:40:12.113Z,47.10
2019-02-16T22:44:47.910Z,45.70
2019-02-16T22:49:23.666Z,45.70
2019-02-16T22:53:59.440Z,46.20
2019-02-16T22:58:35.199Z,46.00
2019-02-16T23:03:11.580Z,46.90
2019-02-16T23:07:47.343Z,48.50
2019-02-16T23:12:23.153Z,48.90
2019-02-16T23:16:58.930Z,48.70
2019-02-16T23:21:34.706Z,49.10
2019-02-16T23:26:10.701Z,48.00
2019-02-16T23:30:46.557Z,48.60
2019-02-16T23:35:22.318Z,48.20
2019-02-16T23:39:58.149Z,48.50
2019-02-16T23:44:33.917Z,49.20
2019-02-16T23:49:09.697Z,48.80
2019-02-16T23:53:45.481Z,48.10
2019-02-16T23:58:21.262Z,47.40
